createdAt,value
2019-03-19T00:00:47.685Z,52.31
2019-03-19T00:02:49.289Z,52.57
2019-03-19T00:04:50.886Z,52.69
2019-03-19T00:06:52.521Z,52.79
2019-03-19T00:08:54.128Z,52.94
2019-03-19T00:10:55.767Z,52.75
2019-03-19T00:12:57.373Z,52.82
2019-03-19T00:14:58.972Z,52.57
2019-03-19T00:17:00.629Z,52.60
2019-03-19T00:19:02.242Z,52.52
2019-03-19T00:21:03.874Z,52.40
2019-03-19T00:23:05.471Z,52.44
2019-03-19T00:25:07.083Z,52.51
2019-03-19T00:27:08.723Z,52.56
2019-03-19T00:29:10.322Z,52.57
2019-03-19T00:31:11.962Z,52.54
2019-03-19T00:33:13.563Z,52.76
2019-03-19T00:35:15.164Z,52.57
2019-03-19T00:37:16.798Z,52.81
2019-03-19T00:39:18.393Z,52.79
2019-03-19T00:41:20.008Z,52.89
2019-03-19T00:43:21.621Z,52.90
2019-03-19T00:45:23.253Z,53.00
2019-03-19T00:47:24.899Z,52.95
2019-03-19T00:49:26.484Z,53.00
2019-03-19T00:51:28.064Z,53.13
2019-03-19T00:53:29.672Z,53.27
2019-03-19T00:55:40.140Z,53.73
2019-03-19T00:57:32.961Z,53.85
2019-03-19T00:59:34.552Z,53.69
2019-03-19T01:01:38.640Z,53.72
2019-03-19T01:03:37.849Z,53.90
2019-03-19T01:05:39.512Z,53.89
2019-03-19T01:07:41.114Z,53.91
2019-03-19T01:09:42.713Z,54.15
2019-03-19T01:11:44.350Z,54.14
2019-03-19T01:13:45.998Z,54.42
2019-03-19T01:15:47.587Z,54.18
2019-03-19T01:17:49.288Z,54.45
2019-03-19T01:19:50.900Z,54.46
2019-03-19T01:21:52.498Z,54.54
2019-03-19T01:23:54.143Z,54.56
2019-03-19T01:25:56.013Z,54.58
2019-03-19T01:27:57.419Z,54.60
2019-03-19T01:29:59.040Z,54.41
2019-03-19T01:32:00.624Z,54.48
2019-03-19T01:34:02.252Z,54.48
2019-03-19T01:36:03.850Z,54.48
2019-03-19T01:38:05.446Z,54.52
2019-03-19T01:40:07.058Z,54.46
2019-03-19T01:42:08.655Z,54.41
2019-03-19T01:44:10.259Z,54.51
2019-03-19T01:46:11.854Z,54.48
2019-03-19T01:48:13.464Z,54.34
2019-03-19T01:50:15.093Z,54.21
2019-03-19T01:52:16.700Z,54.55
2019-03-19T01:54:18.293Z,54.63
2019-03-19T01:56:19.925Z,54.63
2019-03-19T01:58:21.527Z,55.30
2019-03-19T02:00:23.122Z,55.32
2019-03-19T02:02:25.217Z,55.51
2019-03-19T02:04:26.809Z,55.48
2019-03-19T02:06:28.438Z,55.75
2019-03-19T02:08:30.049Z,55.60
2019-03-19T02:10:31.645Z,56.04
2019-03-19T02:12:33.238Z,55.96
2019-03-19T02:14:34.835Z,56.24
2019-03-19T02:16:36.476Z,56.17
2019-03-19T02:18:38.063Z,56.53
2019-03-19T02:20:39.658Z,56.85
2019-03-19T02:22:41.254Z,56.28
2019-03-19T02:24:42.869Z,56.68
2019-03-19T02:26:44.517Z,56.89
2019-03-19T02:28:46.114Z,56.98
2019-03-19T02:30:47.711Z,56.70
2019-03-19T02:32:49.316Z,57.05
2019-03-19T02:34:50.916Z,57.39
2019-03-19T02:36:52.561Z,57.18
2019-03-19T02:38:54.172Z,57.64
2019-03-19T02:40:55.774Z,57.33
2019-03-19T02:42:57.385Z,57.80
2019-03-19T02:44:58.983Z,57.63
2019-03-19T02:47:00.614Z,57.74
2019-03-19T02:49:02.221Z,57.67
2019-03-19T02:51:03.822Z,57.85
2019-03-19T02:53:05.422Z,58.18
2019-03-19T02:55:07.030Z,58.12
2019-03-19T02:57:08.626Z,58.20
2019-03-19T02:59:10.258Z,57.96
2019-03-19T03:01:11.853Z,57.93
2019-03-19T03:03:13.473Z,57.78
2019-03-19T03:05:15.067Z,57.83
2019-03-19T03:07:16.663Z,57.53
2019-03-19T03:09:18.291Z,57.57
2019-03-19T03:11:19.891Z,57.31
2019-03-19T03:13:21.487Z,57.49
2019-03-19T03:15:23.086Z,57.26
2019-03-19T03:17:24.683Z,57.64
2019-03-19T03:19:26.317Z,57.79
2019-03-19T03:21:27.914Z,57.95
2019-03-19T03:23:29.512Z,58.31
2019-03-19T03:25:31.490Z,58.31
2019-03-19T03:27:33.097Z,58.51
2019-03-19T03:29:34.716Z,58.40
2019-03-19T03:31:36.315Z,58.50
2019-03-19T03:33:37.912Z,58.46
2019-03-19T03:35:39.517Z,58.53
2019-03-19T03:37:41.115Z,58.21
2019-03-19T03:39:42.722Z,58.22
2019-03-19T03:41:44.323Z,58.07
2019-03-19T03:43:45.912Z,58.43
2019-03-19T03:45:47.505Z,58.28
2019-03-19T03:47:49.102Z,57.95
2019-03-19T03:49:50.733Z,58.34
2019-03-19T03:51:52.333Z,58.31
2019-03-19T03:53:53.927Z,57.93
2019-03-19T03:55:55.563Z,58.10
2019-03-19T03:57:57.161Z,58.06
2019-03-19T03:59:58.787Z,57.87
2019-03-19T04:02:00.388Z,57.99
2019-03-19T04:04:02.009Z,57.85
2019-03-19T04:06:03.632Z,58.34
2019-03-19T04:08:05.235Z,57.98
2019-03-19T04:10:06.846Z,57.85
2019-03-19T04:12:08.442Z,58.75
2019-03-19T04:14:10.035Z,58.53
2019-03-19T04:16:11.663Z,58.54
2019-03-19T04:18:13.266Z,58.84
2019-03-19T04:20:14.888Z,58.63
2019-03-19T04:22:16.487Z,58.90
2019-03-19T04:24:18.250Z,58.49
2019-03-19T04:26:19.845Z,58.79
2019-03-19T04:28:21.428Z,58.78
2019-03-19T04:30:23.034Z,58.67
2019-03-19T04:32:24.938Z,58.78
2019-03-19T04:34:26.569Z,59.10
2019-03-19T04:36:28.153Z,58.73
2019-03-19T04:38:29.773Z,58.88
2019-03-19T04:40:31.373Z,59.35
2019-03-19T04:42:32.978Z,59.23
2019-03-19T04:44:34.559Z,59.41
2019-03-19T04:46:36.153Z,59.23
2019-03-19T04:48:37.785Z,59.34
2019-03-19T04:50:39.378Z,58.87
2019-03-19T04:52:40.999Z,59.02
2019-03-19T04:54:42.598Z,58.82
2019-03-19T04:56:44.179Z,58.80
2019-03-19T04:58:45.797Z,58.73
2019-03-19T05:00:47.382Z,58.52
2019-03-19T05:02:49.016Z,58.28
2019-03-19T05:04:50.613Z,58.37
2019-03-19T05:06:52.211Z,58.33
2019-03-19T05:08:53.838Z,58.45
2019-03-19T05:10:55.434Z,58.41
2019-03-19T05:12:57.046Z,58.54
2019-03-19T05:14:58.682Z,58.70
2019-03-19T05:17:00.271Z,58.65
2019-03-19T05:19:01.903Z,58.78
2019-03-19T05:21:03.490Z,58.78
2019-03-19T05:23:05.085Z,58.61
2019-03-19T05:25:06.685Z,58.51
2019-03-19T05:27:08.268Z,58.21
2019-03-19T05:29:09.906Z,57.92
2019-03-19T05:31:11.502Z,57.58
2019-03-19T05:33:13.138Z,57.74
2019-03-19T05:35:14.732Z,57.31
2019-03-19T05:37:16.316Z,57.17
2019-03-19T05:39:17.911Z,57.26
2019-03-19T05:41:19.503Z,57.00
2019-03-19T05:43:21.092Z,57.10
2019-03-19T05:45:22.686Z,56.74
2019-03-19T05:47:24.281Z,56.81
2019-03-19T05:49:25.866Z,56.55
2019-03-19T05:51:27.457Z,56.53
2019-03-19T05:53:29.049Z,56.56
2019-03-19T05:55:30.671Z,56.48
2019-03-19T05:57:32.262Z,56.70
2019-03-19T05:59:33.854Z,56.75
2019-03-19T06:01:35.496Z,56.75
2019-03-19T06:03:37.100Z,56.88
2019-03-19T06:05:38.738Z,57.13
2019-03-19T06:07:40.348Z,57.68
2019-03-19T06:09:41.961Z,58.05
2019-03-19T06:11:43.551Z,57.86
2019-03-19T06:13:45.151Z,58.25
2019-03-19T06:15:46.777Z,58.11
2019-03-19T06:17:48.400Z,58.25
2019-03-19T06:19:50.186Z,58.68
2019-03-19T06:21:51.781Z,58.56
2019-03-19T06:23:53.379Z,58.69
2019-03-19T06:25:55.015Z,58.62
2019-03-19T06:28:00.698Z,58.49
2019-03-19T06:29:58.454Z,58.48
2019-03-19T06:32:00.093Z,58.58
2019-03-19T06:34:05.577Z,58.60
2019-03-19T06:36:07.375Z,58.56
2019-03-19T06:38:08.994Z,58.65
2019-03-19T06:40:10.583Z,58.87
2019-03-19T06:42:12.242Z,58.67
2019-03-19T06:44:13.840Z,58.67
2019-03-19T06:46:15.446Z,58.58
2019-03-19T06:48:17.091Z,58.73
2019-03-19T06:50:18.703Z,58.45
2019-03-19T06:52:20.352Z,58.54
2019-03-19T06:54:21.940Z,58.29
2019-03-19T06:56:23.522Z,58.44
2019-03-19T06:58:25.154Z,58.37
2019-03-19T07:00:26.772Z,58.14
2019-03-19T07:02:28.415Z,58.06
2019-03-19T07:04:30.000Z,58.04
2019-03-19T07:06:31.700Z,58.04
2019-03-19T07:08:33.336Z,57.85
2019-03-19T07:10:34.948Z,57.89
2019-03-19T07:12:36.551Z,57.97
2019-03-19T07:14:38.156Z,57.38
2019-03-19T07:16:39.751Z,57.17
2019-03-19T07:18:41.356Z,57.14
2019-03-19T07:20:42.995Z,57.68
2019-03-19T07:22:44.681Z,57.31
2019-03-19T07:24:48.052Z,57.61
2019-03-19T07:26:47.973Z,57.55
2019-03-19T07:28:49.615Z,57.37
2019-03-19T07:30:51.209Z,57.25
2019-03-19T07:32:52.857Z,57.72
2019-03-19T07:34:54.457Z,57.93
2019-03-19T07:36:56.056Z,57.29
2019-03-19T07:38:57.668Z,56.24
2019-03-19T07:40:59.294Z,56.33
2019-03-19T07:43:06.200Z,56.88
2019-03-19T07:45:07.793Z,56.90
2019-03-19T07:47:09.386Z,56.84
2019-03-19T07:49:10.997Z,56.83
2019-03-19T07:51:12.858Z,56.70
2019-03-19T07:53:14.472Z,56.62
2019-03-19T07:55:16.121Z,57.13
2019-03-19T07:57:17.787Z,56.94
2019-03-19T07:59:19.402Z,57.13
2019-03-19T08:01:21.322Z,57.08
2019-03-19T08:03:22.933Z,57.00
2019-03-19T08:05:32.664Z,57.43
2019-03-19T08:07:26.238Z,57.37
2019-03-19T08:09:27.869Z,57.49
2019-03-19T08:11:29.504Z,57.36
2019-03-19T08:13:31.103Z,56.87
2019-03-19T08:15:32.742Z,57.05
2019-03-19T08:17:34.342Z,57.74
2019-03-19T08:19:36.003Z,58.18
2019-03-19T08:21:37.601Z,58.25
2019-03-19T08:23:39.193Z,58.13
2019-03-19T08:25:40.786Z,57.99
2019-03-19T08:27:42.409Z,57.96
2019-03-19T08:29:43.991Z,57.81
2019-03-19T08:31:45.589Z,57.56
2019-03-19T08:33:47.171Z,57.52
2019-03-19T08:35:48.771Z,57.32
2019-03-19T08:37:50.392Z,57.10
2019-03-19T08:39:52.008Z,56.71
2019-03-19T08:41:53.606Z,56.39
2019-03-19T08:43:55.216Z,56.09
2019-03-19T08:45:56.809Z,55.79
2019-03-19T08:47:58.437Z,55.58
2019-03-19T08:50:00.040Z,55.41
2019-03-19T08:52:06.564Z,55.43
2019-03-19T08:54:08.157Z,55.10
2019-03-19T08:56:09.930Z,54.91
2019-03-19T08:58:11.521Z,54.68
2019-03-19T09:00:13.132Z,54.57
2019-03-19T09:02:14.729Z,54.41
2019-03-19T09:04:16.327Z,54.29
2019-03-19T09:06:17.939Z,53.94
2019-03-19T09:08:19.524Z,53.50
2019-03-19T09:10:21.153Z,53.82
2019-03-19T09:12:22.746Z,53.86
2019-03-19T09:14:24.382Z,53.99
2019-03-19T09:16:25.984Z,53.69
2019-03-19T09:18:27.587Z,53.58
2019-03-19T09:20:29.222Z,53.75
2019-03-19T09:22:30.832Z,53.25
2019-03-19T09:24:32.466Z,53.49
2019-03-19T09:26:34.048Z,53.74
2019-03-19T09:28:35.646Z,53.91
2019-03-19T09:30:37.290Z,54.06
2019-03-19T09:32:38.879Z,54.19
2019-03-19T09:34:40.513Z,54.19
2019-03-19T09:36:42.110Z,54.39
2019-03-19T09:38:43.745Z,54.48
2019-03-19T09:40:45.377Z,43.86
2019-03-19T09:42:46.960Z,41.79
2019-03-19T09:44:58.259Z,40.62
2019-03-19T09:46:50.465Z,41.66
2019-03-19T09:48:52.066Z,45.12
2019-03-19T09:50:53.680Z,45.16
2019-03-19T09:52:55.278Z,44.31
2019-03-19T09:54:56.884Z,43.30
2019-03-19T09:56:58.478Z,43.84
2019-03-19T09:59:00.121Z,44.18
2019-03-19T10:01:05.578Z,44.34
2019-03-19T10:03:07.183Z,44.82
2019-03-19T10:05:08.791Z,45.48
2019-03-19T10:07:10.421Z,45.51
2019-03-19T10:09:12.029Z,45.71
2019-03-19T10:11:13.634Z,46.00
2019-03-19T10:13:15.287Z,46.38
2019-03-19T10:15:16.903Z,46.65
2019-03-19T10:17:18.533Z,47.12
2019-03-19T10:19:20.145Z,47.59
2019-03-19T10:21:21.943Z,48.07
2019-03-19T10:23:23.573Z,48.38
2019-03-19T10:25:25.193Z,48.66
2019-03-19T10:27:26.860Z,48.85
2019-03-19T10:29:37.815Z,49.07
2019-03-19T10:31:30.121Z,48.77
2019-03-19T10:33:31.763Z,48.96
2019-03-19T10:35:33.368Z,49.16
2019-03-19T10:37:35.872Z,49.40
2019-03-19T10:39:37.516Z,49.69
2019-03-19T10:41:39.106Z,49.95
2019-03-19T10:43:40.716Z,50.32
2019-03-19T10:45:42.315Z,50.64
2019-03-19T10:47:43.923Z,50.73
2019-03-19T10:49:45.508Z,51.44
2019-03-19T10:51:47.111Z,51.49
2019-03-19T10:53:48.724Z,51.55
2019-03-19T10:55:50.317Z,51.47
2019-03-19T10:57:51.945Z,51.29
2019-03-19T10:59:53.588Z,51.38
2019-03-19T11:01:55.198Z,51.38
2019-03-19T11:03:56.849Z,51.52
2019-03-19T11:05:58.464Z,51.49
2019-03-19T11:08:00.058Z,51.55
2019-03-19T11:10:02.715Z,51.55
2019-03-19T11:12:06.672Z,51.04
2019-03-19T11:14:08.339Z,50.62
2019-03-19T11:16:09.982Z,51.01
2019-03-19T11:18:11.627Z,50.99
2019-03-19T11:20:13.355Z,51.01
2019-03-19T11:22:15.039Z,50.65
2019-03-19T11:24:16.637Z,50.42
2019-03-19T11:26:18.248Z,50.36
2019-03-19T11:28:19.898Z,50.75
2019-03-19T11:30:21.536Z,51.37
2019-03-19T11:32:23.132Z,51.56
2019-03-19T11:34:24.733Z,51.67
2019-03-19T11:36:26.349Z,51.76
2019-03-19T11:38:27.960Z,51.76
2019-03-19T11:40:30.541Z,51.59
2019-03-19T11:42:32.124Z,51.39
2019-03-19T11:44:33.718Z,51.12
2019-03-19T11:46:35.327Z,51.06
2019-03-19T11:48:36.934Z,50.88
2019-03-19T11:50:40.329Z,50.74
2019-03-19T11:52:41.940Z,50.65
2019-03-19T11:54:43.533Z,50.59
2019-03-19T11:56:45.259Z,50.56
2019-03-19T11:58:46.855Z,50.49
2019-03-19T12:00:51.005Z,50.23
2019-03-19T12:02:52.696Z,50.25
2019-03-19T12:04:54.310Z,50.20
2019-03-19T12:06:55.977Z,50.22
2019-03-19T12:08:57.680Z,50.13
2019-03-19T12:10:59.287Z,50.00
2019-03-19T12:13:04.989Z,49.78
2019-03-19T12:15:06.635Z,49.70
2019-03-19T12:17:08.248Z,49.48
2019-03-19T12:19:09.860Z,49.04
2019-03-19T12:21:11.475Z,48.71
2019-03-19T12:23:13.121Z,49.44
2019-03-19T12:25:14.787Z,49.93
2019-03-19T12:27:16.430Z,50.26
2019-03-19T12:29:18.040Z,50.38
2019-03-19T12:31:19.633Z,50.57
2019-03-19T12:33:21.248Z,50.54
2019-03-19T12:35:22.850Z,50.56
2019-03-19T12:37:24.487Z,50.57
2019-03-19T12:39:26.100Z,50.43
2019-03-19T12:41:27.707Z,50.04
2019-03-19T12:43:29.342Z,49.55
2019-03-19T12:45:30.949Z,49.36
2019-03-19T12:47:32.550Z,49.25
2019-03-19T12:49:34.730Z,49.54
2019-03-19T12:51:36.322Z,50.07
2019-03-19T12:53:37.927Z,50.50
2019-03-19T12:55:39.557Z,50.54
2019-03-19T12:57:41.199Z,50.79
2019-03-19T12:59:42.831Z,50.91
2019-03-19T13:01:44.537Z,51.44
2019-03-19T13:03:46.230Z,51.91
2019-03-19T13:05:47.822Z,51.97
2019-03-19T13:07:49.436Z,52.09
2019-03-19T13:09:51.075Z,52.04
2019-03-19T13:11:52.703Z,51.82
2019-03-19T13:13:54.316Z,51.80
2019-03-19T13:15:55.921Z,52.16
2019-03-19T13:17:57.540Z,51.77
2019-03-19T13:19:59.144Z,52.18
2019-03-19T13:22:00.747Z,52.46
2019-03-19T13:24:06.646Z,52.70
2019-03-19T13:26:08.248Z,52.90
2019-03-19T13:28:09.878Z,52.95
2019-03-19T13:30:11.474Z,52.92
2019-03-19T13:32:13.111Z,52.97
2019-03-19T13:34:14.706Z,53.17
2019-03-19T13:36:16.318Z,53.13
2019-03-19T13:38:17.918Z,52.22
2019-03-19T13:40:19.515Z,51.82
2019-03-19T13:42:21.164Z,51.35
2019-03-19T13:44:22.753Z,51.31
2019-03-19T13:46:24.335Z,51.11
2019-03-19T13:48:25.935Z,51.09
2019-03-19T13:50:27.549Z,51.17
2019-03-19T13:52:29.539Z,51.91
2019-03-19T13:54:31.143Z,52.05
2019-03-19T13:56:32.779Z,51.56
2019-03-19T13:58:34.432Z,51.49
2019-03-19T14:00:36.256Z,51.52
2019-03-19T14:02:37.924Z,51.71
2019-03-19T14:04:39.527Z,51.84
2019-03-19T14:06:41.121Z,52.22
2019-03-19T14:08:42.713Z,52.62
2019-03-19T14:10:44.309Z,52.86
2019-03-19T14:12:45.962Z,53.06
2019-03-19T14:14:47.551Z,53.29
2019-03-19T14:16:49.157Z,53.50
2019-03-19T14:18:50.808Z,53.76
2019-03-19T14:20:52.403Z,53.86
2019-03-19T14:22:54.033Z,53.57
2019-03-19T14:24:55.625Z,53.32
2019-03-19T14:26:57.236Z,53.63
2019-03-19T14:28:58.835Z,53.83
2019-03-19T14:31:08.366Z,54.17
2019-03-19T14:33:06.508Z,54.40
2019-03-19T14:35:08.116Z,54.47
2019-03-19T14:37:09.715Z,54.61
2019-03-19T14:39:11.473Z,54.83
2019-03-19T14:41:13.136Z,54.94
2019-03-19T14:43:14.806Z,54.96
2019-03-19T14:45:16.416Z,54.62
2019-03-19T14:47:18.023Z,54.29
2019-03-19T14:49:19.629Z,53.88
2019-03-19T14:51:21.267Z,53.61
2019-03-19T14:53:22.867Z,53.72
2019-03-19T14:55:24.466Z,53.94
2019-03-19T14:57:26.097Z,54.28
2019-03-19T14:59:27.706Z,53.78
2019-03-19T15:01:29.368Z,53.83
2019-03-19T15:03:30.962Z,53.74
2019-03-19T15:05:32.558Z,54.01
2019-03-19T15:07:34.210Z,53.70
2019-03-19T15:09:35.824Z,53.26
2019-03-19T15:11:37.422Z,52.73
2019-03-19T15:13:39.028Z,52.38
2019-03-19T15:15:40.626Z,52.12
2019-03-19T15:17:42.262Z,52.30
2019-03-19T15:19:43.893Z,52.17
2019-03-19T15:21:45.633Z,52.47
2019-03-19T15:23:47.238Z,53.03
2019-03-19T15:25:48.838Z,53.08
2019-03-19T15:27:50.429Z,53.03
2019-03-19T15:29:57.933Z,53.27
2019-03-19T15:31:59.620Z,53.35
2019-03-19T15:34:06.296Z,53.48
2019-03-19T15:36:07.885Z,53.78
2019-03-19T15:38:09.518Z,53.84
2019-03-19T15:40:11.114Z,53.67
2019-03-19T15:42:12.738Z,53.94
2019-03-19T15:44:14.400Z,54.09
2019-03-19T15:46:16.010Z,54.24
2019-03-19T15:48:17.606Z,54.24
2019-03-19T15:50:19.201Z,54.47
2019-03-19T15:52:20.829Z,54.67
2019-03-19T15:54:22.440Z,54.38
2019-03-19T15:56:24.034Z,54.33
2019-03-19T15:58:25.630Z,54.33
2019-03-19T16:00:27.225Z,54.40
2019-03-19T16:02:28.900Z,54.51
2019-03-19T16:04:30.574Z,54.86
2019-03-19T16:06:32.253Z,54.71
2019-03-19T16:08:34.254Z,54.85
2019-03-19T16:10:35.850Z,54.87
2019-03-19T16:12:37.465Z,54.85
2019-03-19T16:14:39.076Z,54.79
2019-03-19T16:16:40.705Z,54.72
2019-03-19T16:18:42.302Z,54.57
2019-03-19T16:20:43.964Z,54.52
2019-03-19T16:22:45.566Z,54.34
2019-03-19T16:24:47.169Z,54.09
2019-03-19T16:26:48.775Z,53.88
2019-03-19T16:28:50.388Z,52.74
2019-03-19T16:30:52.030Z,52.13
2019-03-19T16:32:53.634Z,52.10
2019-03-19T16:34:55.265Z,51.80
2019-03-19T16:36:56.865Z,51.60
2019-03-19T16:38:58.468Z,51.34
2019-03-19T16:41:00.361Z,51.06
2019-03-19T16:43:06.955Z,51.29
2019-03-19T16:45:08.592Z,50.98
2019-03-19T16:47:10.190Z,50.77
2019-03-19T16:49:11.902Z,50.98
2019-03-19T16:51:13.508Z,51.10
2019-03-19T16:53:15.126Z,51.29
2019-03-19T16:55:16.760Z,51.38
2019-03-19T16:57:19.106Z,51.55
2019-03-19T16:59:20.716Z,52.07
2019-03-19T17:01:22.309Z,51.85
2019-03-19T17:03:24.433Z,51.90
2019-03-19T17:05:26.212Z,52.03
2019-03-19T17:07:27.826Z,52.13
2019-03-19T17:09:29.483Z,52.39
2019-03-19T17:11:31.093Z,52.74
2019-03-19T17:13:32.785Z,53.09
2019-03-19T17:15:34.381Z,52.99
2019-03-19T17:17:35.973Z,51.89
2019-03-19T17:19:37.579Z,52.30
2019-03-19T17:21:39.174Z,52.71
2019-03-19T17:23:40.769Z,53.21
2019-03-19T17:25:42.417Z,53.22
2019-03-19T17:27:44.028Z,53.27
2019-03-19T17:29:45.677Z,53.42
2019-03-19T17:31:47.260Z,53.40
2019-03-19T17:33:48.886Z,53.38
2019-03-19T17:35:50.479Z,53.41
2019-03-19T17:37:52.090Z,53.24
2019-03-19T17:39:53.733Z,53.12
2019-03-19T17:41:55.326Z,52.85
2019-03-19T17:43:56.976Z,53.02
2019-03-19T17:45:58.601Z,52.97
2019-03-19T17:48:00.267Z,53.31
2019-03-19T17:50:07.237Z,52.98
2019-03-19T17:52:08.853Z,52.97
2019-03-19T17:54:10.465Z,53.16
2019-03-19T17:56:12.149Z,53.22
2019-03-19T17:58:13.731Z,53.21
2019-03-19T18:00:15.404Z,53.35
2019-03-19T18:02:23.926Z,53.22
2019-03-19T18:04:18.670Z,53.47
2019-03-19T18:06:20.265Z,53.60
2019-03-19T18:08:21.862Z,53.08
2019-03-19T18:10:23.493Z,53.48
2019-03-19T18:12:25.095Z,52.89
2019-03-19T18:14:26.693Z,53.13
2019-03-19T18:16:28.304Z,52.98
2019-03-19T18:18:29.907Z,52.40
2019-03-19T18:20:31.519Z,53.17
2019-03-19T18:22:33.158Z,52.79
2019-03-19T18:24:34.758Z,52.76
2019-03-19T18:26:36.417Z,52.58
2019-03-19T18:28:38.019Z,52.78
2019-03-19T18:30:39.798Z,52.58
2019-03-19T18:32:41.413Z,50.63
2019-03-19T18:34:43.010Z,49.91
2019-03-19T18:36:44.596Z,50.74
2019-03-19T18:38:46.189Z,50.42
2019-03-19T18:40:47.781Z,50.42
2019-03-19T18:42:49.388Z,50.24
2019-03-19T18:44:51.031Z,50.29
2019-03-19T18:46:52.645Z,50.47
2019-03-19T18:48:54.241Z,50.83
2019-03-19T18:50:55.859Z,50.81
2019-03-19T18:52:57.466Z,50.92
2019-03-19T18:54:59.187Z,50.24
2019-03-19T18:57:00.787Z,50.82
2019-03-19T18:59:06.964Z,50.92
2019-03-19T19:01:08.562Z,51.12
2019-03-19T19:03:10.168Z,49.02
2019-03-19T19:05:11.992Z,49.14
2019-03-19T19:07:13.634Z,47.21
2019-03-19T19:09:15.257Z,49.43
2019-03-19T19:11:16.857Z,49.78
2019-03-19T19:13:18.450Z,49.54
2019-03-19T19:15:20.072Z,49.35
2019-03-19T19:17:21.666Z,50.30
2019-03-19T19:19:23.266Z,50.75
2019-03-19T19:21:24.961Z,51.02
2019-03-19T19:23:26.564Z,51.25
2019-03-19T19:25:28.216Z,51.34
2019-03-19T19:27:29.832Z,51.52
2019-03-19T19:29:31.425Z,51.61
2019-03-19T19:31:33.017Z,51.60
2019-03-19T19:33:34.618Z,51.28
2019-03-19T19:35:36.264Z,51.21
2019-03-19T19:37:38.006Z,50.69
2019-03-19T19:39:39.694Z,49.60
2019-03-19T19:41:41.346Z,49.44
2019-03-19T19:43:42.946Z,49.64
2019-03-19T19:45:44.598Z,49.67
2019-03-19T19:47:46.190Z,48.87
2019-03-19T19:49:47.807Z,49.17
2019-03-19T19:51:49.401Z,49.32
2019-03-19T19:53:51.014Z,49.70
2019-03-19T19:55:52.730Z,49.46
2019-03-19T19:57:54.326Z,49.95
2019-03-19T19:59:55.957Z,50.07
2019-03-19T20:01:57.597Z,50.17
2019-03-19T20:03:59.212Z,50.23
2019-03-19T20:08:07.846Z,50.65
2019-03-19T20:10:09.444Z,50.55
2019-03-19T20:12:11.051Z,50.32
2019-03-19T20:14:13.408Z,50.49
2019-03-19T20:16:15.001Z,50.44
2019-03-19T20:18:16.583Z,50.26
2019-03-19T20:20:18.220Z,50.35
2019-03-19T20:22:19.960Z,50.45
2019-03-19T20:24:21.567Z,50.61
2019-03-19T20:26:23.511Z,48.03
2019-03-19T20:28:25.151Z,49.77
2019-03-19T20:30:26.756Z,50.06
2019-03-19T20:32:28.386Z,49.89
2019-03-19T20:34:29.991Z,50.11
2019-03-19T20:36:31.659Z,50.11
2019-03-19T20:38:33.269Z,50.24
2019-03-19T20:40:34.918Z,50.59
2019-03-19T20:42:36.560Z,50.63
2019-03-19T20:44:38.175Z,50.63
2019-03-19T20:46:39.810Z,50.73
2019-03-19T20:48:41.420Z,50.82
2019-03-19T20:50:43.200Z,50.98
2019-03-19T20:52:44.837Z,50.65
2019-03-19T20:54:46.450Z,50.90
2019-03-19T20:56:48.046Z,50.66
2019-03-19T20:58:49.644Z,50.59
2019-03-19T21:00:51.228Z,50.74
2019-03-19T21:02:52.875Z,49.32
2019-03-19T21:04:54.473Z,49.64
2019-03-19T21:06:56.086Z,50.65
2019-03-19T21:08:57.699Z,49.96
2019-03-19T21:10:59.344Z,50.16
2019-03-19T21:13:00.947Z,50.14
2019-03-19T21:15:07.235Z,50.04
2019-03-19T21:17:08.835Z,50.04
2019-03-19T21:19:10.448Z,50.40
2019-03-19T21:21:12.047Z,50.33
2019-03-19T21:23:13.645Z,50.41
2019-03-19T21:25:15.237Z,50.87
2019-03-19T21:27:16.857Z,50.64
2019-03-19T21:29:18.450Z,50.66
2019-03-19T21:31:20.046Z,50.59
2019-03-19T21:33:21.756Z,50.75
2019-03-19T21:35:23.398Z,50.67
2019-03-19T21:37:25.014Z,50.73
2019-03-19T21:39:26.624Z,50.73
2019-03-19T21:41:28.233Z,51.15
2019-03-19T21:43:29.815Z,47.71
2019-03-19T21:45:31.550Z,47.28
2019-03-19T21:47:33.201Z,47.92
2019-03-19T21:49:34.791Z,47.91
2019-03-19T21:51:36.429Z,47.91
2019-03-19T21:53:38.044Z,48.39
2019-03-19T21:55:39.693Z,48.56
2019-03-19T21:57:41.286Z,48.66
2019-03-19T21:59:42.891Z,49.06
2019-03-19T22:01:44.545Z,48.88
2019-03-19T22:03:46.141Z,49.18
2019-03-19T22:05:47.769Z,48.99
2019-03-19T22:07:49.382Z,49.09
2019-03-19T22:09:51.101Z,49.40
2019-03-19T22:11:52.734Z,49.35
2019-03-19T22:13:54.316Z,49.79
2019-03-19T22:15:55.924Z,50.04
2019-03-19T22:17:57.553Z,49.71
2019-03-19T22:19:59.155Z,50.02
2019-03-19T22:22:00.786Z,50.15
2019-03-19T22:24:06.908Z,50.08
2019-03-19T22:26:08.893Z,50.46
2019-03-19T22:28:10.489Z,50.34
2019-03-19T22:30:12.085Z,50.09
2019-03-19T22:32:13.727Z,50.38
2019-03-19T22:34:15.332Z,50.18
2019-03-19T22:36:16.954Z,50.46
2019-03-19T22:38:18.559Z,50.25
2019-03-19T22:40:20.153Z,50.55
2019-03-19T22:42:21.736Z,51.27
2019-03-19T22:44:23.384Z,50.87
2019-03-19T22:46:24.992Z,51.13
2019-03-19T22:48:26.604Z,51.49
2019-03-19T22:50:28.248Z,51.45
2019-03-19T22:52:29.872Z,51.34
2019-03-19T22:54:31.477Z,51.59
2019-03-19T22:56:33.085Z,51.19
2019-03-19T22:58:34.696Z,51.17
2019-03-19T23:00:38.936Z,50.98
2019-03-19T23:02:40.588Z,51.66
2019-03-19T23:04:42.187Z,51.90
2019-03-19T23:06:43.782Z,52.22
2019-03-19T23:08:45.383Z,52.21
2019-03-19T23:10:47.011Z,52.50
2019-03-19T23:12:48.650Z,52.65
2019-03-19T23:14:50.245Z,52.78
2019-03-19T23:16:51.962Z,52.69
2019-03-19T23:18:53.560Z,52.98
2019-03-19T23:20:55.168Z,53.10
2019-03-19T23:22:56.827Z,53.13
2019-03-19T23:24:58.422Z,52.96
2019-03-19T23:27:00.015Z,53.15
2019-03-19T23:29:06.624Z,53.44
2019-03-19T23:31:08.222Z,53.44
2019-03-19T23:33:09.868Z,53.28
2019-03-19T23:35:11.470Z,53.41
2019-03-19T23:37:13.074Z,53.43
2019-03-19T23:39:14.656Z,53.37
2019-03-19T23:41:16.235Z,53.31
2019-03-19T23:43:17.844Z,53.12
2019-03-19T23:45:19.438Z,53.16
2019-03-19T23:47:21.034Z,53.16
2019-03-19T23:49:22.630Z,53.01
2019-03-19T23:51:24.256Z,53.11
2019-03-19T23:53:25.855Z,53.14
2019-03-19T23:55:27.468Z,53.10
2019-03-19T23:57:29.097Z,53.16
2019-03-19T23:59:30.774Z,53.34
